createdAt,value
2022-12-04T05:00:30.421Z,6.83
2022-12-04T05:04:33.114Z,6.68
2022-12-04T05:08:36.446Z,6.90
2022-12-04T05:12:39.106Z,6.90
2022-12-04T05:16:43.135Z,6.83
2022-12-04T05:20:45.725Z,6.22
2022-12-04T05:24:48.502Z,6.83
2022-12-04T05:28:51.218Z,6.63
2022-12-04T05:32:55.218Z,6.18
2022-12-04T05:36:57.924Z,7.00
2022-12-04T05:41:01.042Z,7.20
2022-12-04T05:45:03.729Z,8.95
2022-12-04T05:49:07.777Z,6.70
2022-12-04T05:53:10.454Z,7.32
2022-12-04T05:57:13.108Z,6.10
2022-12-04T06:01:17.651Z,7.00
2022-12-04T06:05:21.751Z,6.93
2022-12-04T06:09:24.538Z,8.13
2022-12-04T06:13:27.934Z,6.38
2022-12-04T06:17:30.679Z,7.13
2022-12-04T06:21:37.168Z,7.00
2022-12-04T06:25:39.820Z,7.35
2022-12-04T06:29:42.474Z,7.83
2022-12-04T06:33:45.383Z,7.67
2022-12-04T06:37:49.391Z,7.05
2022-12-04T06:41:52.003Z,7.13
2022-12-04T06:46:01.226Z,7.63
2022-12-04T06:50:04.458Z,7.93
2022-12-04T06:54:08.807Z,7.28
2022-12-04T06:58:11.475Z,7.65
2022-12-04T07:02:14.137Z,7.43
2022-12-04T07:06:19.437Z,7.07
2022-12-04T07:10:23.477Z,7.65
2022-12-04T07:14:26.208Z,7.70
2022-12-04T07:18:29.226Z,8.23
2022-12-04T07:22:31.835Z,8.40
2022-12-04T07:26:35.918Z,7.83
2022-12-04T07:30:39.274Z,7.85
2022-12-04T07:34:41.879Z,7.90
2022-12-04T07:38:44.925Z,8.40
2022-12-04T07:42:48.980Z,9.10
2022-12-04T07:46:51.635Z,8.68
2022-12-04T07:51:03.299Z,8.50
2022-12-04T07:55:07.248Z,8.80
2022-12-04T07:59:11.205Z,7.93
2022-12-04T08:03:13.858Z,8.43
2022-12-04T08:07:16.581Z,8.60
2022-12-04T08:11:22.190Z,8.67
2022-12-04T08:15:26.257Z,9.50
2022-12-04T08:19:28.942Z,8.88
2022-12-04T08:23:31.767Z,8.93
2022-12-04T08:27:34.597Z,9.82
2022-12-04T08:31:38.642Z,10.43
2022-12-04T08:35:41.310Z,9.80
2022-12-04T08:39:43.922Z,8.77
2022-12-04T08:43:46.629Z,9.53
2022-12-04T08:47:52.619Z,9.88
2022-12-04T08:51:55.475Z,11.35
2022-12-04T08:55:58.392Z,10.57
2022-12-04T09:00:01.653Z,10.07
2022-12-04T09:04:06.146Z,9.73
2022-12-04T09:08:09.292Z,10.68
2022-12-04T09:12:12.501Z,10.75
2022-12-04T09:16:17.586Z,10.88
2022-12-04T09:20:21.784Z,10.60
2022-12-04T09:24:24.422Z,11.63
2022-12-04T09:28:27.201Z,10.80
2022-12-04T09:32:29.822Z,10.83
2022-12-04T09:36:33.806Z,9.67
2022-12-04T09:40:44.140Z,11.88
2022-12-04T09:44:51.467Z,10.30
2022-12-04T09:48:57.083Z,10.27
2022-12-04T09:53:07.373Z,11.00
2022-12-04T09:57:18.048Z,9.43
2022-12-04T10:01:23.888Z,9.95
2022-12-04T10:05:38.972Z,9.35
2022-12-04T10:09:52.542Z,10.05
2022-12-04T10:14:07.103Z,10.20
2022-12-04T10:18:23.307Z,10.50
2022-12-04T10:22:34.468Z,8.98
2022-12-04T10:26:44.533Z,9.57
2022-12-04T10:30:49.257Z,9.07
2022-12-04T10:34:55.116Z,9.75
2022-12-04T10:39:00.532Z,10.00
2022-12-04T10:43:12.492Z,8.27
2022-12-04T10:47:15.447Z,8.48
2022-12-04T10:51:20.199Z,9.25
2022-12-04T10:55:30.521Z,9.43
2022-12-04T10:59:37.020Z,9.85
2022-12-04T11:03:40.445Z,9.32
2022-12-04T11:11:50.013Z,9.40
2022-12-04T11:15:55.906Z,8.98
2022-12-04T11:20:02.838Z,9.45
2022-12-04T11:24:05.996Z,9.63
2022-12-04T11:28:39.877Z,9.93
2022-12-04T11:32:42.081Z,9.48
2022-12-04T11:36:50.715Z,9.18
2022-12-04T11:40:56.039Z,10.52
2022-12-04T11:45:00.048Z,9.30
2022-12-04T11:49:04.353Z,9.90
2022-12-04T11:53:16.865Z,9.07
2022-12-04T11:57:29.536Z,9.45
2022-12-04T12:01:41.949Z,10.23
2022-12-04T12:06:07.042Z,9.88
2022-12-04T12:10:20.088Z,8.65
2022-12-04T12:14:31.366Z,9.90
2022-12-04T12:18:55.771Z,9.25
2022-12-04T12:23:24.585Z,9.75
2022-12-04T12:27:47.371Z,9.05
2022-12-04T12:32:09.888Z,9.60
2022-12-04T12:36:14.901Z,11.20
2022-12-04T12:40:30.137Z,9.80
2022-12-04T12:44:41.678Z,10.60
2022-12-04T12:48:57.969Z,11.23
2022-12-04T12:53:06.236Z,11.27
2022-12-04T12:57:15.794Z,11.18
2022-12-04T13:01:23.750Z,10.85
2022-12-04T13:05:31.217Z,9.15
2022-12-04T13:09:38.864Z,9.10
2022-12-04T13:13:47.123Z,9.20
2022-12-04T13:17:52.771Z,9.95
2022-12-04T13:22:07.771Z,10.68
2022-12-04T13:26:23.489Z,11.10
2022-12-04T13:30:37.943Z,10.85
2022-12-04T13:34:51.697Z,10.65
2022-12-04T13:39:19.826Z,11.13
2022-12-04T13:43:46.999Z,10.27
2022-12-04T13:47:58.133Z,11.30
2022-12-04T13:52:03.002Z,10.23
2022-12-04T13:56:10.324Z,11.02
2022-12-04T14:00:28.947Z,11.30
2022-12-04T14:04:41.367Z,10.32
2022-12-04T14:08:44.882Z,10.80
2022-12-04T14:16:56.072Z,9.98
2022-12-04T14:21:04.532Z,10.60
2022-12-04T14:25:35.737Z,10.77
2022-12-04T14:29:50.794Z,8.95
2022-12-04T14:33:57.941Z,9.65
2022-12-04T14:38:05.145Z,9.77
2022-12-04T14:42:14.801Z,9.77
2022-12-04T14:46:24.414Z,8.82
2022-12-04T14:50:35.147Z,9.35
2022-12-04T14:54:47.199Z,8.93
2022-12-04T14:58:50.370Z,9.63
2022-12-04T15:02:56.090Z,9.60
2022-12-04T15:07:00.731Z,8.98
2022-12-04T15:11:24.801Z,9.32
2022-12-04T15:23:37.272Z,9.55
2022-12-04T15:27:41.661Z,8.82
2022-12-04T15:31:50.245Z,10.27
2022-12-04T15:35:57.046Z,9.80
2022-12-04T15:40:00.523Z,10.82
2022-12-04T15:48:29.321Z,9.00
2022-12-04T15:52:32.004Z,9.57
2022-12-04T15:56:34.618Z,10.13
2022-12-04T16:00:42.430Z,10.10
2022-12-04T16:04:57.054Z,9.30
2022-12-04T16:09:01.649Z,8.95
2022-12-04T16:13:06.217Z,9.77
2022-12-04T16:17:11.689Z,10.95
2022-12-04T16:21:17.329Z,9.40
2022-12-04T16:25:20.079Z,10.77
2022-12-04T16:29:23.066Z,10.20
2022-12-04T16:33:27.043Z,9.95
2022-12-04T16:37:31.629Z,9.15
2022-12-04T16:41:34.298Z,10.77
2022-12-04T16:45:37.138Z,9.27
2022-12-04T16:49:41.895Z,10.82
2022-12-04T16:53:45.148Z,10.07
2022-12-04T16:57:48.133Z,9.95
2022-12-04T17:01:52.395Z,9.90
2022-12-04T17:05:57.394Z,9.23
2022-12-04T17:09:59.965Z,9.93
2022-12-04T17:14:06.953Z,9.57
2022-12-04T17:18:13.905Z,10.00
2022-12-04T17:22:23.112Z,10.07
2022-12-04T17:26:25.692Z,9.93
2022-12-04T17:30:32.873Z,9.90
2022-12-04T17:34:38.904Z,9.60
2022-12-04T17:38:43.249Z,8.55
2022-12-04T17:42:45.837Z,10.10
2022-12-04T17:46:48.493Z,10.53
2022-12-04T17:50:51.534Z,9.80
2022-12-04T17:54:55.859Z,9.05
2022-12-04T17:58:58.798Z,8.90
2022-12-04T18:03:02.511Z,9.40
2022-12-04T18:07:05.345Z,8.77
2022-12-04T18:11:09.672Z,7.82
2022-12-04T18:15:12.328Z,7.57
2022-12-04T18:19:15.940Z,9.30
2022-12-04T18:27:22.410Z,7.18
2022-12-04T18:31:25.316Z,8.23
2022-12-04T18:35:28.007Z,7.82
2022-12-04T18:39:30.739Z,7.60
2022-12-04T18:43:35.453Z,8.80
2022-12-04T18:47:38.071Z,8.80
2022-12-04T18:51:45.812Z,7.27
2022-12-04T18:55:52.177Z,7.75
2022-12-04T18:59:56.409Z,9.25
2022-12-04T19:04:01.326Z,7.57
2022-12-04T19:08:04.319Z,8.73
2022-12-04T19:12:07.365Z,7.22
2022-12-04T19:16:14.014Z,8.18
2022-12-04T19:20:18.135Z,8.40
2022-12-04T19:24:20.735Z,6.13
2022-12-04T19:28:23.426Z,8.63
2022-12-04T19:32:27.497Z,8.77
2022-12-04T19:36:32.919Z,6.07
2022-12-04T19:40:35.542Z,7.25
2022-12-04T19:44:53.780Z,8.93
2022-12-04T19:49:01.922Z,7.90
2022-12-04T19:53:04.979Z,6.22
2022-12-04T19:57:07.672Z,5.88
2022-12-04T20:01:13.096Z,6.67
2022-12-04T20:05:17.279Z,7.25
2022-12-04T20:09:21.975Z,7.63
2022-12-04T20:13:24.609Z,6.43
2022-12-04T20:17:28.919Z,5.90
2022-12-04T20:21:33.290Z,7.25
2022-12-04T20:25:36.441Z,6.25
2022-12-04T20:29:39.063Z,5.88
2022-12-04T20:33:41.986Z,8.10
2022-12-04T20:37:45.943Z,7.90
2022-12-04T20:41:48.853Z,6.10
2022-12-04T20:45:51.603Z,6.07
2022-12-04T20:49:54.538Z,7.78
2022-12-04T20:54:00.095Z,7.07
2022-12-04T20:58:02.688Z,7.63
2022-12-04T21:02:05.378Z,7.67
2022-12-04T21:06:13.233Z,4.30
2022-12-04T21:10:17.282Z,5.78
2022-12-04T21:14:39.351Z,5.88
2022-12-04T21:18:41.941Z,6.15
2022-12-04T21:22:44.781Z,6.37
2022-12-04T21:26:49.125Z,5.88
2022-12-04T21:30:51.818Z,5.20
2022-12-04T21:34:54.498Z,8.52
2022-12-04T21:38:58.249Z,6.47
2022-12-04T21:43:02.209Z,8.13
2022-12-04T21:47:05.013Z,6.88
2022-12-04T21:51:21.534Z,7.03
2022-12-04T21:55:31.201Z,7.28
2022-12-04T21:59:35.168Z,6.90
